createdAt,value
2023-05-18T00:00:54.235Z,55.32
2023-05-18T00:03:23.070Z,56.13
2023-05-18T00:05:51.608Z,55.33
2023-05-18T00:08:21.766Z,56.00
2023-05-18T00:10:50.606Z,56.03
2023-05-18T00:13:19.024Z,55.56
2023-05-18T00:15:47.620Z,56.37
2023-05-18T00:18:16.118Z,56.05
2023-05-18T00:20:44.758Z,56.64
2023-05-18T00:23:16.635Z,56.83
2023-05-18T00:25:46.478Z,56.69
2023-05-18T00:28:14.868Z,56.66
2023-05-18T00:30:43.248Z,56.40
2023-05-18T00:33:11.759Z,56.25
2023-05-18T00:35:41.473Z,57.10
2023-05-18T00:38:09.915Z,57.24
2023-05-18T00:40:38.509Z,56.80
2023-05-18T00:43:08.322Z,57.00
2023-05-18T00:45:37.058Z,56.98
2023-05-18T00:48:06.239Z,57.40
2023-05-18T00:50:34.970Z,56.92
2023-05-18T00:53:03.750Z,56.80
2023-05-18T00:55:32.494Z,56.66
2023-05-18T00:58:02.573Z,56.43
2023-05-18T01:00:33.898Z,56.56
2023-05-18T01:03:02.671Z,58.11
2023-05-18T01:05:31.437Z,56.18
2023-05-18T01:08:03.103Z,56.92
2023-05-18T01:10:38.811Z,57.05
2023-05-18T01:13:13.903Z,57.35
2023-05-18T01:15:50.280Z,57.07
2023-05-18T01:18:26.323Z,58.13
2023-05-18T01:21:01.561Z,57.78
2023-05-18T01:23:56.652Z,57.23
2023-05-18T01:26:31.643Z,58.00
2023-05-18T01:29:05.660Z,58.03
2023-05-18T01:31:34.601Z,58.19
2023-05-18T01:34:04.609Z,58.36
2023-05-18T01:36:33.180Z,57.64
2023-05-18T01:39:02.713Z,58.80
2023-05-18T01:41:37.438Z,58.05
2023-05-18T01:44:15.728Z,57.30
2023-05-18T01:46:53.776Z,57.69
2023-05-18T01:49:30.608Z,57.79
2023-05-18T01:52:04.965Z,57.08
2023-05-18T01:54:34.876Z,57.94
2023-05-18T01:57:07.686Z,57.80
2023-05-18T01:59:37.970Z,58.12
2023-05-18T02:02:06.833Z,58.36
2023-05-18T02:04:37.537Z,58.22
2023-05-18T02:07:06.717Z,58.30
2023-05-18T02:09:35.547Z,58.86
2023-05-18T02:12:06.264Z,58.80
2023-05-18T02:14:34.918Z,58.37
2023-05-18T02:17:03.484Z,58.70
2023-05-18T02:19:32.042Z,59.43
2023-05-18T02:22:00.767Z,59.10
2023-05-18T02:24:29.175Z,59.34
2023-05-18T02:26:58.546Z,58.91
2023-05-18T02:29:28.477Z,58.72
2023-05-18T02:31:57.567Z,59.72
2023-05-18T02:34:27.895Z,59.35
2023-05-18T02:37:04.065Z,59.53
2023-05-18T02:39:34.089Z,59.12
2023-05-18T02:42:02.544Z,59.05
2023-05-18T02:44:32.407Z,59.63
2023-05-18T02:47:01.144Z,59.32
2023-05-18T02:49:29.624Z,59.44
2023-05-18T02:51:58.103Z,59.44
2023-05-18T02:54:26.609Z,59.85
2023-05-18T02:56:57.048Z,60.09
2023-05-18T02:59:36.264Z,60.67
2023-05-18T03:02:04.981Z,60.35
2023-05-18T03:04:33.523Z,60.31
2023-05-18T03:07:02.997Z,60.87
2023-05-18T03:09:31.694Z,60.33
2023-05-18T03:12:01.279Z,60.48
2023-05-18T03:14:30.064Z,60.64
2023-05-18T03:17:00.696Z,60.47
2023-05-18T03:19:29.187Z,60.92
2023-05-18T03:21:57.989Z,61.15
2023-05-18T03:24:30.203Z,61.59
2023-05-18T03:27:01.070Z,61.66
2023-05-18T03:29:31.480Z,62.38
2023-05-18T03:32:03.008Z,61.83
2023-05-18T03:34:31.470Z,62.19
2023-05-18T03:37:00.294Z,62.01
2023-05-18T03:39:28.866Z,62.58
2023-05-18T03:41:57.378Z,62.75
2023-05-18T03:44:26.315Z,62.61
2023-05-18T03:46:55.088Z,62.94
2023-05-18T03:49:24.883Z,63.13
2023-05-18T03:51:54.907Z,63.37
2023-05-18T03:54:24.161Z,62.92
2023-05-18T03:56:53.249Z,63.42
2023-05-18T03:59:21.662Z,63.72
2023-05-18T04:01:53.946Z,63.46
2023-05-18T04:04:27.436Z,63.60
2023-05-18T04:06:56.642Z,63.34
2023-05-18T04:09:25.754Z,63.93
2023-05-18T04:11:54.195Z,63.45
2023-05-18T04:14:24.704Z,63.53
2023-05-18T04:16:53.702Z,63.48
2023-05-18T04:19:23.146Z,63.57
2023-05-18T04:21:54.600Z,63.05
2023-05-18T04:24:23.091Z,63.13
2023-05-18T04:26:51.623Z,62.36
2023-05-18T04:29:21.285Z,61.87
2023-05-18T04:31:49.912Z,61.57
2023-05-18T04:34:19.138Z,60.59
2023-05-18T04:36:48.378Z,60.87
2023-05-18T04:39:19.042Z,60.02
2023-05-18T04:41:47.645Z,59.68
2023-05-18T04:44:18.248Z,59.22
2023-05-18T04:46:47.543Z,59.66
2023-05-18T04:49:16.604Z,59.27
2023-05-18T04:51:47.003Z,59.13
2023-05-18T04:54:16.243Z,58.17
2023-05-18T04:56:47.383Z,58.24
2023-05-18T04:59:16.094Z,57.24
2023-05-18T05:01:44.874Z,58.47
2023-05-18T05:04:13.576Z,58.19
2023-05-18T05:06:42.876Z,57.86
2023-05-18T05:09:14.078Z,57.82
2023-05-18T05:11:42.934Z,57.04
2023-05-18T05:14:12.825Z,55.84
2023-05-18T05:16:41.451Z,55.66
2023-05-18T05:19:09.958Z,55.26
2023-05-18T05:21:38.416Z,57.04
2023-05-18T05:24:08.493Z,55.00
2023-05-18T05:26:37.754Z,54.41
2023-05-18T05:29:06.109Z,54.44
2023-05-18T05:31:37.108Z,53.62
2023-05-18T05:34:05.728Z,53.80
2023-05-18T05:36:34.246Z,54.03
2023-05-18T05:39:02.888Z,53.62
2023-05-18T05:41:32.407Z,53.74
2023-05-18T05:44:01.519Z,53.08
2023-05-18T05:46:29.999Z,52.18
2023-05-18T05:49:02.171Z,52.87
2023-05-18T05:51:30.848Z,52.15
2023-05-18T05:53:59.305Z,51.95
2023-05-18T05:56:27.758Z,52.72
2023-05-18T05:58:56.220Z,51.56
2023-05-18T06:01:24.835Z,51.37
2023-05-18T06:03:53.280Z,50.24
2023-05-18T06:06:23.173Z,49.81
2023-05-18T06:08:51.664Z,50.47
2023-05-18T06:11:20.250Z,50.42
2023-05-18T06:13:49.408Z,50.20
2023-05-18T06:16:17.967Z,49.72
2023-05-18T06:18:46.503Z,50.50
2023-05-18T06:21:15.084Z,50.20
2023-05-18T06:23:45.586Z,49.78
2023-05-18T06:26:40.780Z,48.66
2023-05-18T06:29:09.556Z,49.64
2023-05-18T06:31:56.406Z,48.51
2023-05-18T06:34:37.771Z,47.67
2023-05-18T06:37:07.269Z,46.96
2023-05-18T06:39:37.338Z,46.60
2023-05-18T06:42:06.458Z,46.67
2023-05-18T06:44:36.050Z,47.18
2023-05-18T06:47:27.985Z,46.53
2023-05-18T06:49:56.502Z,46.42
2023-05-18T06:52:26.975Z,46.98
2023-05-18T06:54:57.624Z,46.66
2023-05-18T06:57:26.991Z,46.85
2023-05-18T06:59:56.046Z,45.70
2023-05-18T07:02:24.561Z,44.61
2023-05-18T07:04:53.639Z,44.73
2023-05-18T07:07:22.174Z,44.27
2023-05-18T07:09:50.824Z,44.05
2023-05-18T07:12:20.759Z,43.49
2023-05-18T07:14:49.241Z,42.75
2023-05-18T07:17:17.655Z,44.41
2023-05-18T07:19:46.088Z,44.19
2023-05-18T07:22:14.501Z,43.96
2023-05-18T07:24:43.297Z,43.48
2023-05-18T07:27:11.750Z,43.33
2023-05-18T07:29:42.180Z,42.59
2023-05-18T07:32:10.575Z,42.77
2023-05-18T07:34:39.022Z,42.37
2023-05-18T07:37:07.451Z,42.02
2023-05-18T07:39:35.835Z,42.29
2023-05-18T07:42:04.604Z,42.80
2023-05-18T07:44:33.092Z,41.64
2023-05-18T07:47:03.061Z,41.86
2023-05-18T07:49:31.821Z,41.43
2023-05-18T07:52:00.542Z,40.95
2023-05-18T07:54:29.018Z,40.16
2023-05-18T07:56:59.656Z,41.07
2023-05-18T07:59:29.072Z,41.24
2023-05-18T08:01:59.080Z,40.53
2023-05-18T08:04:29.618Z,40.68
2023-05-18T08:07:00.693Z,40.66
2023-05-18T08:09:29.193Z,41.20
2023-05-18T08:11:58.222Z,40.31
2023-05-18T08:14:26.796Z,40.16
2023-05-18T08:16:55.225Z,39.64
2023-05-18T08:19:23.862Z,40.18
2023-05-18T08:21:53.702Z,37.72
2023-05-18T08:24:22.077Z,38.76
2023-05-18T08:26:51.885Z,37.99
2023-05-18T08:29:20.432Z,39.47
2023-05-18T08:31:49.604Z,37.89
2023-05-18T08:34:18.606Z,38.06
2023-05-18T08:36:47.253Z,38.10
2023-05-18T08:39:17.067Z,38.64
2023-05-18T08:41:58.548Z,37.21
2023-05-18T08:44:32.247Z,37.36
2023-05-18T08:47:01.898Z,36.38
2023-05-18T08:49:32.302Z,37.79
2023-05-18T08:52:06.322Z,37.49
2023-05-18T08:54:38.469Z,37.04
2023-05-18T08:57:10.653Z,37.14
2023-05-18T08:59:44.819Z,34.90
2023-05-18T09:02:14.823Z,35.00
2023-05-18T09:04:45.092Z,34.70
2023-05-18T09:07:15.028Z,35.63
2023-05-18T09:09:46.873Z,36.87
2023-05-18T09:12:17.764Z,35.14
2023-05-18T09:14:47.035Z,36.26
2023-05-18T09:17:15.680Z,35.27
2023-05-18T09:19:44.718Z,33.64
2023-05-18T09:22:13.210Z,35.27
2023-05-18T09:24:41.741Z,34.78
2023-05-18T09:27:11.821Z,35.39
2023-05-18T09:29:54.174Z,36.16
2023-05-18T09:32:23.319Z,35.87
2023-05-18T09:34:52.478Z,34.52
2023-05-18T09:37:22.642Z,34.78
2023-05-18T09:40:00.833Z,31.89
2023-05-18T09:42:37.958Z,31.98
2023-05-18T09:45:17.351Z,32.51
2023-05-18T09:47:47.940Z,33.14
2023-05-18T09:50:16.467Z,33.28
2023-05-18T09:52:46.153Z,33.87
2023-05-18T09:55:16.970Z,33.65
2023-05-18T09:57:48.897Z,33.01
2023-05-18T10:00:19.516Z,33.06
2023-05-18T10:02:52.503Z,33.60
2023-05-18T10:05:22.105Z,31.35
2023-05-18T10:07:52.134Z,32.93
2023-05-18T10:10:23.025Z,31.80
2023-05-18T10:12:54.349Z,32.30
2023-05-18T10:15:24.245Z,31.40
2023-05-18T10:17:56.879Z,30.21
2023-05-18T10:20:27.011Z,30.76
2023-05-18T10:22:57.525Z,29.98
2023-05-18T10:25:28.526Z,30.02
2023-05-18T10:28:02.066Z,28.67
2023-05-18T10:30:31.638Z,30.79
2023-05-18T10:33:01.864Z,28.15
2023-05-18T10:35:31.505Z,27.92
2023-05-18T10:38:01.242Z,30.58
2023-05-18T10:40:30.587Z,29.45
2023-05-18T10:43:03.635Z,28.62
2023-05-18T10:45:35.454Z,29.13
2023-05-18T10:48:08.539Z,29.41
2023-05-18T10:50:38.605Z,29.00
2023-05-18T10:53:07.854Z,29.47
2023-05-18T10:55:36.485Z,30.04
2023-05-18T10:58:14.121Z,30.08
2023-05-18T11:00:45.805Z,30.87
2023-05-18T11:03:16.441Z,30.21
2023-05-18T11:05:45.471Z,30.23
2023-05-18T11:08:15.171Z,30.52
2023-05-18T11:10:47.226Z,30.78
2023-05-18T11:13:17.364Z,30.59
2023-05-18T11:16:09.093Z,30.50
2023-05-18T11:18:46.525Z,31.25
2023-05-18T11:21:23.276Z,32.85
2023-05-18T11:24:19.358Z,31.24
2023-05-18T11:26:49.377Z,31.96
2023-05-18T11:29:24.793Z,32.80
2023-05-18T11:31:55.597Z,30.31
2023-05-18T11:34:47.691Z,31.69
2023-05-18T11:37:17.507Z,31.72
2023-05-18T11:39:59.696Z,31.26
2023-05-18T11:42:35.120Z,30.60
2023-05-18T11:45:13.002Z,30.62
2023-05-18T11:47:42.279Z,31.79
2023-05-18T11:50:13.070Z,30.28
2023-05-18T11:52:49.317Z,30.68
2023-05-18T11:55:20.172Z,31.42
2023-05-18T11:57:52.803Z,30.59
2023-05-18T12:00:25.392Z,30.50
2023-05-18T12:02:57.007Z,32.57
2023-05-18T12:05:25.754Z,32.00
2023-05-18T12:07:54.971Z,31.29
2023-05-18T12:10:24.251Z,31.39
2023-05-18T12:12:54.460Z,30.20
2023-05-18T12:15:26.014Z,29.97
2023-05-18T12:17:54.541Z,32.36
2023-05-18T12:20:26.627Z,31.30
2023-05-18T12:22:57.038Z,31.08
2023-05-18T12:25:27.809Z,30.61
2023-05-18T12:27:57.837Z,32.95
2023-05-18T12:30:35.282Z,30.87
2023-05-18T12:33:05.307Z,31.47
2023-05-18T12:35:34.398Z,31.52
2023-05-18T12:38:03.294Z,30.67
2023-05-18T12:40:44.469Z,32.78
2023-05-18T12:43:13.775Z,31.81
2023-05-18T12:45:45.781Z,31.34
2023-05-18T12:48:15.146Z,30.80
2023-05-18T12:50:48.394Z,32.72
2023-05-18T12:53:17.894Z,31.57
2023-05-18T12:55:48.071Z,30.60
2023-05-18T12:58:19.123Z,30.15
2023-05-18T13:00:50.193Z,31.12
2023-05-18T13:03:22.301Z,30.98
2023-05-18T13:06:06.060Z,31.45
2023-05-18T13:08:36.390Z,30.68
2023-05-18T13:11:13.452Z,31.34
2023-05-18T13:14:05.383Z,30.53
2023-05-18T13:16:40.252Z,32.75
2023-05-18T13:19:11.349Z,32.05
2023-05-18T13:21:40.209Z,32.68
2023-05-18T13:24:09.143Z,34.05
2023-05-18T13:26:37.620Z,32.63
2023-05-18T13:29:08.620Z,32.13
2023-05-18T13:31:38.463Z,33.67
2023-05-18T13:34:06.964Z,32.20
2023-05-18T13:36:36.579Z,31.29
2023-05-18T13:39:07.486Z,31.70
2023-05-18T13:41:36.597Z,31.99
2023-05-18T13:44:05.620Z,31.64
2023-05-18T13:46:37.741Z,31.63
2023-05-18T13:49:08.092Z,32.60
2023-05-18T13:51:36.479Z,30.82
2023-05-18T13:54:05.670Z,31.84
2023-05-18T13:56:34.209Z,31.37
2023-05-18T13:59:03.619Z,31.29
2023-05-18T14:01:32.706Z,31.08
2023-05-18T14:04:01.335Z,31.35
2023-05-18T14:06:31.828Z,31.08
2023-05-18T14:09:00.262Z,31.60
2023-05-18T14:11:28.616Z,31.92
2023-05-18T14:13:57.042Z,31.61
2023-05-18T14:16:25.588Z,31.66
2023-05-18T14:18:54.074Z,32.39
2023-05-18T14:21:22.492Z,31.89
2023-05-18T14:23:52.297Z,32.43
2023-05-18T14:26:22.281Z,32.51
2023-05-18T14:28:50.751Z,31.57
2023-05-18T14:31:19.262Z,32.11
2023-05-18T14:33:48.328Z,31.88
2023-05-18T14:36:16.720Z,32.03
2023-05-18T14:38:46.249Z,31.52
2023-05-18T14:41:16.582Z,31.60
2023-05-18T14:43:46.475Z,31.67
2023-05-18T14:46:15.079Z,32.21
2023-05-18T14:48:43.493Z,32.09
2023-05-18T14:51:11.942Z,32.22
2023-05-18T14:53:40.406Z,31.94
2023-05-18T14:56:09.585Z,31.56
2023-05-18T14:58:39.306Z,31.63
2023-05-18T15:01:07.755Z,31.97
2023-05-18T15:03:36.201Z,31.68
2023-05-18T15:06:04.891Z,31.73
2023-05-18T15:08:33.250Z,32.36
2023-05-18T15:11:01.654Z,31.69
2023-05-18T15:13:30.183Z,32.27
2023-05-18T15:16:00.041Z,32.89
2023-05-18T15:18:28.480Z,31.94
2023-05-18T15:20:56.862Z,32.06
2023-05-18T15:23:26.333Z,31.88
2023-05-18T15:25:54.991Z,32.51
2023-05-18T15:28:23.415Z,32.00
2023-05-18T15:30:55.304Z,32.06
2023-05-18T15:33:25.026Z,32.41
2023-05-18T15:35:53.493Z,32.50
2023-05-18T15:38:21.939Z,31.91
2023-05-18T15:40:51.206Z,32.19
2023-05-18T15:43:20.269Z,33.02
2023-05-18T15:45:48.853Z,33.45
2023-05-18T15:48:17.382Z,33.04
2023-05-18T15:50:47.348Z,33.36
2023-05-18T15:53:16.075Z,33.92
2023-05-18T15:55:44.539Z,33.01
2023-05-18T15:58:14.776Z,33.85
2023-05-18T16:00:43.308Z,34.06
2023-05-18T16:03:12.576Z,33.72
2023-05-18T16:05:41.344Z,33.95
2023-05-18T16:08:11.256Z,34.67
2023-05-18T16:10:39.692Z,34.62
2023-05-18T16:13:08.304Z,34.58
2023-05-18T16:15:37.115Z,35.19
2023-05-18T16:18:06.347Z,35.55
2023-05-18T16:20:35.040Z,34.38
2023-05-18T16:23:03.983Z,34.90
2023-05-18T16:25:33.740Z,34.83
2023-05-18T16:28:02.116Z,35.12
2023-05-18T16:30:31.055Z,35.28
2023-05-18T16:32:59.999Z,35.06
2023-05-18T16:35:30.994Z,35.31
2023-05-18T16:37:59.453Z,35.85
2023-05-18T16:40:27.888Z,35.44
2023-05-18T16:42:57.681Z,36.43
2023-05-18T16:45:27.900Z,35.86
2023-05-18T16:47:56.462Z,35.51
2023-05-18T16:50:25.115Z,35.27
2023-05-18T16:52:53.643Z,35.67
2023-05-18T16:55:23.760Z,36.00
2023-05-18T16:57:52.331Z,36.13
2023-05-18T17:00:22.903Z,35.68
2023-05-18T17:02:52.763Z,35.85
2023-05-18T17:05:23.068Z,35.89
2023-05-18T17:07:53.350Z,36.04
2023-05-18T17:10:22.102Z,36.07
2023-05-18T17:12:50.563Z,36.31
2023-05-18T17:15:19.041Z,36.07
2023-05-18T17:17:48.859Z,36.31
2023-05-18T17:20:17.376Z,36.90
2023-05-18T17:22:46.020Z,36.67
2023-05-18T17:25:14.496Z,36.15
2023-05-18T17:27:42.923Z,36.68
2023-05-18T17:30:12.032Z,36.42
2023-05-18T17:32:40.714Z,36.39
2023-05-18T17:35:13.902Z,36.34
2023-05-18T17:37:42.782Z,36.04
2023-05-18T17:40:12.468Z,36.25
2023-05-18T17:42:40.894Z,36.46
2023-05-18T17:45:10.998Z,37.40
2023-05-18T17:47:41.819Z,36.68
2023-05-18T17:50:13.366Z,36.62
2023-05-18T17:52:41.797Z,37.19
2023-05-18T17:55:10.920Z,37.12
2023-05-18T17:57:45.003Z,37.16
2023-05-18T18:00:15.741Z,37.26
2023-05-18T18:02:44.211Z,37.05
2023-05-18T18:05:14.141Z,37.49
2023-05-18T18:07:42.527Z,37.60
2023-05-18T18:10:11.898Z,37.61
2023-05-18T18:12:40.630Z,37.78
2023-05-18T18:15:11.207Z,38.22
2023-05-18T18:17:39.732Z,37.84
2023-05-18T18:20:10.407Z,37.87
2023-05-18T18:22:40.288Z,37.98
2023-05-18T18:25:09.536Z,38.45
2023-05-18T18:27:37.998Z,37.97
2023-05-18T18:30:08.103Z,38.30
2023-05-18T18:32:36.833Z,38.35
2023-05-18T18:35:05.955Z,38.64
2023-05-18T18:37:34.422Z,39.09
2023-05-18T18:40:06.656Z,39.14
2023-05-18T18:42:35.128Z,39.53
2023-05-18T18:45:03.639Z,39.48
2023-05-18T18:47:32.085Z,40.17
2023-05-18T18:50:00.527Z,39.59
2023-05-18T18:52:28.864Z,40.26
2023-05-18T18:54:58.356Z,40.43
2023-05-18T18:57:28.214Z,40.21
2023-05-18T18:59:58.664Z,40.28
2023-05-18T19:02:27.156Z,40.92
2023-05-18T19:04:55.835Z,41.40
2023-05-18T19:07:24.256Z,40.74
2023-05-18T19:09:52.746Z,41.27
2023-05-18T19:12:21.223Z,41.90
2023-05-18T19:14:51.083Z,41.50
2023-05-18T19:17:19.496Z,41.84
2023-05-18T19:19:47.869Z,41.67
2023-05-18T19:22:16.514Z,41.86
2023-05-18T19:24:44.959Z,42.24
2023-05-18T19:27:13.476Z,42.06
2023-05-18T19:29:41.926Z,42.99
2023-05-18T19:32:11.957Z,42.08
2023-05-18T19:34:40.684Z,42.02
2023-05-18T19:37:09.155Z,42.54
2023-05-18T19:39:37.617Z,42.80
2023-05-18T19:42:07.024Z,43.20
2023-05-18T19:44:35.621Z,42.82
2023-05-18T19:47:04.408Z,42.65
2023-05-18T19:49:34.186Z,42.54
2023-05-18T19:52:07.911Z,43.07
2023-05-18T19:54:36.835Z,42.88
2023-05-18T19:57:05.700Z,43.09
2023-05-18T19:59:34.167Z,42.54
2023-05-18T20:02:05.142Z,42.53
2023-05-18T20:04:34.898Z,42.86
2023-05-18T20:07:03.555Z,42.36
2023-05-18T20:09:32.297Z,43.27
2023-05-18T20:12:00.905Z,42.76
2023-05-18T20:14:30.485Z,42.81
2023-05-18T20:16:59.881Z,43.79
2023-05-18T20:19:28.627Z,43.27
2023-05-18T20:21:58.570Z,43.51
2023-05-18T20:24:27.049Z,43.63
2023-05-18T20:26:55.787Z,44.15
2023-05-18T20:29:24.186Z,43.60
2023-05-18T20:31:53.525Z,44.17
2023-05-18T20:34:22.091Z,43.85
2023-05-18T20:36:50.472Z,44.96
2023-05-18T20:39:20.398Z,44.58
2023-05-18T20:41:50.423Z,44.83
2023-05-18T20:44:22.923Z,44.89
2023-05-18T20:46:53.001Z,44.50
2023-05-18T20:49:22.354Z,44.82
2023-05-18T20:51:51.277Z,45.37
2023-05-18T20:54:21.967Z,45.27
2023-05-18T20:56:51.350Z,45.40
2023-05-18T20:59:20.022Z,45.50
2023-05-18T21:01:51.008Z,45.47
2023-05-18T21:04:19.788Z,46.16
2023-05-18T21:06:49.350Z,46.17
2023-05-18T21:09:19.972Z,45.75
2023-05-18T21:11:48.369Z,46.57
2023-05-18T21:14:17.414Z,46.28
2023-05-18T21:16:47.902Z,46.44
2023-05-18T21:19:16.501Z,46.37
2023-05-18T21:21:44.977Z,46.20
2023-05-18T21:24:13.464Z,46.49
2023-05-18T21:26:43.333Z,46.90
2023-05-18T21:29:11.723Z,46.87
2023-05-18T21:31:40.228Z,47.75
2023-05-18T21:34:08.708Z,47.73
2023-05-18T21:36:37.253Z,47.88
2023-05-18T21:39:09.351Z,48.21
2023-05-18T21:41:40.269Z,48.55
2023-05-18T21:44:10.508Z,48.31
2023-05-18T21:46:39.174Z,48.51
2023-05-18T21:49:08.991Z,48.40
2023-05-18T21:51:37.680Z,48.73
2023-05-18T21:54:06.260Z,48.94
2023-05-18T21:56:36.837Z,48.62
2023-05-18T21:59:05.408Z,49.19
2023-05-18T22:01:35.351Z,49.30
2023-05-18T22:04:03.964Z,49.94
2023-05-18T22:06:32.461Z,49.92
2023-05-18T22:09:00.926Z,50.42
2023-05-18T22:11:29.469Z,50.40
2023-05-18T22:13:57.886Z,50.22
2023-05-18T22:16:26.462Z,50.81
2023-05-18T22:18:56.304Z,50.35
2023-05-18T22:21:24.734Z,50.72
2023-05-18T22:23:53.197Z,50.96
2023-05-18T22:26:21.623Z,50.88
2023-05-18T22:28:50.140Z,50.69
2023-05-18T22:31:18.538Z,51.27
2023-05-18T22:33:46.947Z,51.09
2023-05-18T22:36:18.115Z,51.54
2023-05-18T22:38:46.474Z,52.17
2023-05-18T22:41:14.818Z,51.88
2023-05-18T22:43:43.218Z,51.92
2023-05-18T22:46:12.062Z,51.93
2023-05-18T22:48:41.011Z,52.14
2023-05-18T22:51:09.891Z,51.98
2023-05-18T22:53:39.535Z,52.16
2023-05-18T22:56:08.406Z,52.30
2023-05-18T22:58:36.746Z,52.03
2023-05-18T23:01:05.146Z,52.12
2023-05-18T23:03:33.480Z,52.02
2023-05-18T23:06:03.254Z,51.41
2023-05-18T23:08:32.080Z,51.83
2023-05-18T23:11:01.806Z,51.54
2023-05-18T23:13:32.909Z,52.15
2023-05-18T23:16:02.435Z,52.00
2023-05-18T23:18:30.807Z,52.19
2023-05-18T23:20:59.197Z,52.37
2023-05-18T23:23:27.524Z,52.46
2023-05-18T23:25:56.218Z,52.67
2023-05-18T23:28:25.941Z,52.79
2023-05-18T23:30:54.356Z,52.61
2023-05-18T23:33:23.499Z,52.74
2023-05-18T23:35:52.959Z,52.67
2023-05-18T23:38:23.232Z,52.87
2023-05-18T23:40:55.456Z,52.97
2023-05-18T23:43:25.996Z,52.63
2023-05-18T23:45:55.260Z,51.86
2023-05-18T23:48:24.880Z,52.43
2023-05-18T23:50:54.430Z,52.62
2023-05-18T23:53:23.583Z,52.38
2023-05-18T23:55:52.759Z,52.31
2023-05-18T23:58:23.406Z,52.66
